Time;durP1;ratioP1;P1;durP2;ratioP2;P2;SDS_P1;SDS_P2;PMS_P1;PMS_P2;Temp;Humidity;BMP_temperature;BMP_pressure;BME280_temperature;BME280_humidity;BME280_pressure;Samples;Min_cycle;Max_cycle;Signal;HPM_P1;HPM_P2
2024/02/27 00:00:04;;;;;;;0.30;0.30;;;;;;;;;;5048160;28;20251;-76
2024/02/27 00:02:30;;;;;;;0.90;0.77;;;;;;;;;;5062209;28;20669;-76
2024/02/27 00:04:57;;;;;;;0.40;0.40;;;;;;;;;;5066951;28;20227;-76
2024/02/27 00:07:25;;;;;;;0.30;0.30;;;;;;;;;;5057536;28;20251;-76
2024/02/27 00:09:52;;;;;;;0.30;0.30;;;;;;;;;;5070062;28;20223;-75
2024/02/27 00:12:21;;;;;;;0.30;0.30;;;;;;;;;;5064584;28;20225;-75
2024/02/27 00:14:48;;;;;;;0.30;0.30;;;;;;;;;;5066426;28;20316;-76
2024/02/27 00:17:14;;;;;;;0.30;0.30;;;;;;;;;;5054080;28;20219;-76
2024/02/27 00:19:40;;;;;;;0.30;0.30;;;;;;;;;;5058584;28;20233;-75
2024/02/27 00:22:07;;;;;;;0.30;0.30;;;;;;;;;;5064514;28;20218;-76
2024/02/27 00:24:33;;;;;;;0.30;0.30;;;;;;;;;;5052043;28;20223;-76
2024/02/27 00:27:00;;;;;;;0.30;0.30;;;;;;;;;;5055584;28;20692;-76
2024/02/27 00:29:27;;;;;;;0.30;0.30;;;;;;;;;;5062216;28;20223;-75
2024/02/27 00:31:53;;;;;;;0.30;0.30;;;;;;;;;;5066743;28;20234;-75
2024/02/27 00:34:20;;;;;;;0.30;0.30;;;;;;;;;;5048801;28;20227;-76
2024/02/27 00:36:47;;;;;;;0.30;0.30;;;;;;;;;;5063129;28;20245;-76
2024/02/27 00:39:13;;;;;;;0.37;0.37;;;;;;;;;;5059244;28;20230;-75
2024/02/27 00:41:41;;;;;;;0.50;0.47;;;;;;;;;;5051078;28;20660;-76
2024/02/27 00:44:07;;;;;;;0.30;0.30;;;;;;;;;;5063286;28;20707;-76
2024/02/27 00:46:36;;;;;;;0.40;0.40;;;;;;;;;;5061611;28;20242;-77
2024/02/27 00:49:02;;;;;;;0.50;0.50;;;;;;;;;;5056525;28;20238;-76
2024/02/27 00:51:29;;;;;;;0.30;0.30;;;;;;;;;;5060349;28;20727;-76
2024/02/27 00:53:57;;;;;;;0.30;0.30;;;;;;;;;;5096494;28;20214;-76
2024/02/27 00:56:24;;;;;;;0.30;0.30;;;;;;;;;;5099108;28;20202;-77
2024/02/27 00:58:50;;;;;;;0.30;0.30;;;;;;;;;;5083117;28;20321;-75
2024/02/27 01:01:17;;;;;;;0.30;0.30;;;;;;;;;;5075143;28;20783;-76
2024/02/27 01:03:45;;;;;;;1.07;0.63;;;;;;;;;;5065459;28;20229;-76
2024/02/27 01:06:13;;;;;;;0.30;0.30;;;;;;;;;;5063207;28;20234;-76
2024/02/27 01:08:41;;;;;;;0.30;0.30;;;;;;;;;;5063880;28;20578;-76
2024/02/27 01:11:07;;;;;;;0.50;0.50;;;;;;;;;;5057297;28;20249;-76
2024/02/27 01:13:34;;;;;;;0.30;0.30;;;;;;;;;;5065300;28;20733;-76
2024/02/27 01:16:00;;;;;;;0.30;0.30;;;;;;;;;;5064387;28;20218;-76
2024/02/27 01:18:27;;;;;;;0.30;0.30;;;;;;;;;;5065915;28;20227;-75
2024/02/27 01:20:53;;;;;;;0.50;0.50;;;;;;;;;;5042080;28;24834;-76
2024/02/27 01:23:20;;;;;;;0.50;0.50;;;;;;;;;;5064690;28;20782;-76
2024/02/27 01:25:46;;;;;;;0.30;0.30;;;;;;;;;;5060041;28;20310;-76
2024/02/27 01:28:13;;;;;;;0.30;0.30;;;;;;;;;;5063705;28;20238;-76
2024/02/27 01:30:40;;;;;;;0.30;0.30;;;;;;;;;;5046947;28;20229;-76
2024/02/27 01:33:07;;;;;;;0.30;0.30;;;;;;;;;;5047788;28;20218;-76
2024/02/27 01:35:33;;;;;;;0.30;0.30;;;;;;;;;;5065375;28;20226;-76
2024/02/27 01:38:01;;;;;;;1.17;1.17;;;;;;;;;;5072371;28;20225;-76
2024/02/27 01:40:27;;;;;;;0.50;0.50;;;;;;;;;;5058849;28;20223;-76
2024/02/27 01:42:53;;;;;;;0.50;0.50;;;;;;;;;;5046258;28;20231;-76
2024/02/27 01:45:23;;;;;;;0.30;0.30;;;;;;;;;;5063151;28;20590;-76
2024/02/27 01:47:51;;;;;;;0.30;0.30;;;;;;;;;;5063802;28;20281;-76
2024/02/27 01:50:19;;;;;;;0.30;0.30;;;;;;;;;;5063419;28;20276;-75
2024/02/27 01:52:46;;;;;;;0.30;0.30;;;;;;;;;;5063436;28;23308;-76
2024/02/27 01:55:14;;;;;;;0.30;0.30;;;;;;;;;;5062264;28;20229;-76
2024/02/27 01:57:41;;;;;;;0.30;0.30;;;;;;;;;;5066559;28;20234;-76
2024/02/27 02:00:09;;;;;;;0.30;0.30;;;;;;;;;;5042467;28;20304;-76
2024/02/27 02:02:43;;;;;;;0.30;0.30;;;;;;;;;;5045074;28;20235;-77
2024/02/27 02:05:09;;;;;;;0.30;0.30;;;;;;;;;;5044725;28;20245;-75
2024/02/27 02:07:38;;;;;;;0.30;0.30;;;;;;;;;;5061946;28;20321;-76
2024/02/27 02:10:11;;;;;;;0.40;0.40;;;;;;;;;;5038613;28;20238;-75
2024/02/27 02:12:37;;;;;;;3.07;2.87;;;;;;;;;;5057106;28;20227;-76
2024/02/27 02:15:04;;;;;;;0.30;0.30;;;;;;;;;;5061342;28;20233;-76
2024/02/27 02:17:33;;;;;;;0.30;0.30;;;;;;;;;;5041703;28;20771;-76
2024/02/27 02:20:00;;;;;;;0.30;0.30;;;;;;;;;;5056969;28;21069;-77
2024/02/27 02:22:26;;;;;;;0.40;0.40;;;;;;;;;;5059773;28;20233;-76
2024/02/27 02:24:53;;;;;;;0.30;0.30;;;;;;;;;;5064511;28;20254;-76
2024/02/27 02:27:23;;;;;;;0.30;0.30;;;;;;;;;;5062198;28;20231;-76
2024/02/27 02:29:51;;;;;;;0.30;0.30;;;;;;;;;;5042293;28;20215;-76
2024/02/27 02:32:17;;;;;;;0.30;0.30;;;;;;;;;;5064154;28;20230;-76
2024/02/27 02:34:44;;;;;;;0.30;0.30;;;;;;;;;;5061521;28;20226;-75
2024/02/27 02:37:10;;;;;;;0.30;0.30;;;;;;;;;;5038956;28;20215;-76
2024/02/27 02:39:37;;;;;;;0.40;0.40;;;;;;;;;;5060513;28;20237;-76
2024/02/27 02:42:03;;;;;;;0.30;0.30;;;;;;;;;;5042226;28;20316;-76
2024/02/27 02:44:32;;;;;;;0.30;0.30;;;;;;;;;;5045836;28;20264;-78
2024/02/27 02:46:59;;;;;;;0.30;0.30;;;;;;;;;;5043314;28;20223;-76
2024/02/27 02:49:25;;;;;;;0.30;0.30;;;;;;;;;;5050765;28;20223;-75
2024/02/27 02:51:52;;;;;;;0.30;0.30;;;;;;;;;;5059329;28;20257;-75
2024/02/27 02:54:18;;;;;;;0.30;0.30;;;;;;;;;;5057880;28;20227;-75
2024/02/27 02:56:45;;;;;;;0.30;0.30;;;;;;;;;;5064258;28;20230;-76
2024/02/27 02:59:12;;;;;;;0.30;0.30;;;;;;;;;;5067703;28;20239;-75
2024/02/27 03:01:39;;;;;;;0.30;0.30;;;;;;;;;;5056562;28;20241;-76
2024/02/27 03:04:05;;;;;;;0.30;0.30;;;;;;;;;;5059954;28;20219;-75
2024/02/27 03:06:32;;;;;;;0.30;0.30;;;;;;;;;;5059704;28;20310;-76
2024/02/27 03:08:58;;;;;;;0.20;0.20;;;;;;;;;;5059438;28;20264;-76
2024/02/27 03:11:25;;;;;;;0.33;0.33;;;;;;;;;;5052604;28;20219;-75
2024/02/27 03:13:51;;;;;;;0.83;0.83;;;;;;;;;;5060493;28;20281;-76
2024/02/27 03:16:19;;;;;;;0.30;0.30;;;;;;;;;;5058032;28;20581;-75
2024/02/27 03:18:45;;;;;;;0.50;0.50;;;;;;;;;;5042142;28;20232;-76
2024/02/27 03:21:12;;;;;;;0.43;0.43;;;;;;;;;;5056774;28;20238;-75
2024/02/27 03:23:40;;;;;;;0.30;0.30;;;;;;;;;;5046355;28;20708;-76
2024/02/27 03:26:06;;;;;;;0.30;0.30;;;;;;;;;;5062267;28;20571;-76
2024/02/27 03:28:33;;;;;;;0.30;0.30;;;;;;;;;;5059458;28;20258;-76
2024/02/27 03:30:59;;;;;;;0.50;0.50;;;;;;;;;;5044990;28;20230;-75
2024/02/27 03:33:26;;;;;;;0.20;0.20;;;;;;;;;;5065400;28;20227;-75
2024/02/27 03:35:53;;;;;;;0.30;0.30;;;;;;;;;;5068530;28;20231;-75
2024/02/27 03:38:20;;;;;;;0.50;0.50;;;;;;;;;;5061925;28;20604;-76
2024/02/27 03:40:46;;;;;;;0.30;0.30;;;;;;;;;;5062098;28;20235;-76
2024/02/27 03:43:13;;;;;;;0.30;0.30;;;;;;;;;;5065770;28;20604;-76
2024/02/27 03:45:39;;;;;;;0.40;0.40;;;;;;;;;;5067962;28;20229;-76
2024/02/27 03:48:06;;;;;;;0.30;0.30;;;;;;;;;;5073430;28;20226;-76
2024/02/27 03:50:33;;;;;;;0.30;0.30;;;;;;;;;;5064558;28;20232;-75
2024/02/27 03:53:00;;;;;;;0.30;0.30;;;;;;;;;;5045098;28;20298;-76
2024/02/27 03:55:27;;;;;;;0.30;0.30;;;;;;;;;;5050831;28;20229;-76
2024/02/27 03:57:53;;;;;;;0.30;0.30;;;;;;;;;;5045905;28;20234;-75
2024/02/27 04:00:19;;;;;;;0.30;0.30;;;;;;;;;;5064871;28;20266;-76
2024/02/27 04:02:46;;;;;;;0.40;0.40;;;;;;;;;;5061535;28;20244;-77
2024/02/27 04:05:13;;;;;;;0.30;0.30;;;;;;;;;;5039868;28;20262;-76
2024/02/27 04:07:40;;;;;;;0.23;0.23;;;;;;;;;;5047900;28;20237;-76
2024/02/27 04:10:07;;;;;;;0.43;0.43;;;;;;;;;;5048656;28;20600;-76
2024/02/27 04:12:34;;;;;;;0.30;0.30;;;;;;;;;;5027021;28;20227;-75
2024/02/27 04:15:01;;;;;;;0.30;0.30;;;;;;;;;;5019693;28;20241;-75
2024/02/27 04:17:27;;;;;;;0.30;0.30;;;;;;;;;;5043002;28;20227;-76
2024/02/27 04:19:54;;;;;;;0.30;0.30;;;;;;;;;;5045077;28;20273;-76
2024/02/27 04:22:21;;;;;;;0.30;0.30;;;;;;;;;;5040679;28;20756;-76
2024/02/27 04:24:48;;;;;;;0.30;0.30;;;;;;;;;;5040285;28;20235;-76
2024/02/27 04:27:14;;;;;;;0.30;0.30;;;;;;;;;;5047685;28;20238;-75
2024/02/27 04:29:41;;;;;;;0.30;0.30;;;;;;;;;;5048563;28;20223;-75
2024/02/27 04:32:07;;;;;;;0.30;0.30;;;;;;;;;;5046883;28;20234;-75
2024/02/27 04:34:34;;;;;;;0.30;0.30;;;;;;;;;;5025092;28;20258;-75
2024/02/27 04:37:01;;;;;;;0.30;0.30;;;;;;;;;;5040708;28;20272;-75
2024/02/27 04:39:27;;;;;;;0.33;0.33;;;;;;;;;;5042838;28;20676;-75
2024/02/27 04:41:54;;;;;;;0.20;0.20;;;;;;;;;;5026045;28;20254;-75
2024/02/27 04:44:21;;;;;;;0.30;0.30;;;;;;;;;;5041031;28;20315;-75
2024/02/27 04:46:47;;;;;;;0.30;0.30;;;;;;;;;;5040246;28;20247;-75
2024/02/27 04:49:13;;;;;;;0.30;0.30;;;;;;;;;;5036697;28;20224;-75
2024/02/27 04:51:40;;;;;;;0.40;0.40;;;;;;;;;;5043659;28;20226;-75
2024/02/27 04:54:07;;;;;;;0.30;0.30;;;;;;;;;;5043924;28;20212;-75
2024/02/27 04:56:33;;;;;;;0.30;0.30;;;;;;;;;;5044144;28;20266;-75
2024/02/27 04:59:03;;;;;;;0.30;0.30;;;;;;;;;;5041243;28;20227;-76
2024/02/27 05:01:29;;;;;;;0.20;0.20;;;;;;;;;;5041991;28;20219;-75
2024/02/27 05:03:56;;;;;;;2.40;0.73;;;;;;;;;;5027350;28;20227;-75
2024/02/27 05:06:22;;;;;;;0.30;0.30;;;;;;;;;;5040464;28;20224;-75
2024/02/27 05:08:49;;;;;;;0.30;0.30;;;;;;;;;;5042734;28;20271;-75
2024/02/27 05:11:16;;;;;;;0.30;0.30;;;;;;;;;;5040289;28;20609;-75
2024/02/27 05:13:42;;;;;;;0.30;0.30;;;;;;;;;;5027315;28;20251;-75
2024/02/27 05:16:09;;;;;;;0.30;0.30;;;;;;;;;;5041906;28;20223;-75
2024/02/27 05:18:35;;;;;;;0.30;0.30;;;;;;;;;;5038671;28;20231;-75
2024/02/27 05:21:04;;;;;;;0.30;0.30;;;;;;;;;;5021542;28;20227;-75
2024/02/27 05:23:33;;;;;;;0.20;0.20;;;;;;;;;;5042432;28;20268;-75
2024/02/27 05:25:59;;;;;;;0.40;0.40;;;;;;;;;;5041085;28;20215;-75
2024/02/27 05:28:26;;;;;;;0.30;0.30;;;;;;;;;;5040493;28;20230;-75
2024/02/27 05:30:53;;;;;;;0.30;0.30;;;;;;;;;;5037578;28;20243;-75
2024/02/27 05:33:19;;;;;;;0.30;0.30;;;;;;;;;;5039208;28;20226;-75
2024/02/27 05:35:47;;;;;;;0.30;0.30;;;;;;;;;;5045140;28;20243;-76
2024/02/27 05:38:13;;;;;;;0.30;0.30;;;;;;;;;;5060876;28;20241;-75
2024/02/27 05:40:40;;;;;;;0.30;0.30;;;;;;;;;;5050126;28;20218;-76
2024/02/27 05:43:08;;;;;;;0.37;0.37;;;;;;;;;;5058624;28;20227;-76
2024/02/27 05:45:35;;;;;;;0.30;0.30;;;;;;;;;;5057750;28;21055;-75
2024/02/27 05:48:02;;;;;;;0.40;0.40;;;;;;;;;;5064924;28;20237;-75
2024/02/27 05:50:30;;;;;;;0.30;0.30;;;;;;;;;;5062306;28;20219;-76
2024/02/27 05:52:56;;;;;;;0.30;0.30;;;;;;;;;;5065465;28;20222;-75
2024/02/27 05:55:23;;;;;;;0.30;0.30;;;;;;;;;;5064527;28;20219;-75
2024/02/27 05:57:50;;;;;;;0.30;0.30;;;;;;;;;;5063781;28;20707;-75
2024/02/27 06:00:17;;;;;;;0.30;0.30;;;;;;;;;;5056669;28;20223;-75
2024/02/27 06:02:43;;;;;;;0.30;0.30;;;;;;;;;;5060325;28;20700;-75
2024/02/27 06:05:10;;;;;;;0.30;0.30;;;;;;;;;;5043451;28;20689;-75
2024/02/27 06:07:38;;;;;;;0.30;0.30;;;;;;;;;;5041678;28;20231;-76
2024/02/27 06:10:04;;;;;;;0.30;0.30;;;;;;;;;;5055578;28;20221;-75
2024/02/27 06:12:31;;;;;;;0.40;0.40;;;;;;;;;;5065010;28;20245;-76
2024/02/27 06:14:57;;;;;;;0.60;0.60;;;;;;;;;;5069448;28;20308;-75
2024/02/27 06:17:24;;;;;;;0.23;0.23;;;;;;;;;;5062833;28;20314;-75
2024/02/27 06:19:55;;;;;;;0.30;0.30;;;;;;;;;;5065254;28;20227;-75
2024/02/27 06:22:23;;;;;;;0.60;0.60;;;;;;;;;;5063300;28;20219;-75
2024/02/27 06:24:50;;;;;;;0.30;0.30;;;;;;;;;;5060776;28;20788;-75
2024/02/27 06:27:17;;;;;;;0.30;0.30;;;;;;;;;;5060327;28;20223;-75
2024/02/27 06:29:43;;;;;;;0.30;0.30;;;;;;;;;;5054752;28;20226;-75
2024/02/27 06:32:12;;;;;;;0.30;0.30;;;;;;;;;;5057870;28;20215;-75
2024/02/27 06:34:39;;;;;;;0.40;0.40;;;;;;;;;;5059359;28;20230;-75
2024/02/27 06:37:07;;;;;;;0.50;0.50;;;;;;;;;;5066657;28;20234;-76
2024/02/27 06:39:33;;;;;;;0.30;0.30;;;;;;;;;;5092062;28;20262;-77
2024/02/27 06:42:02;;;;;;;0.30;0.30;;;;;;;;;;5075336;28;20235;-78
2024/02/27 06:44:28;;;;;;;0.30;0.30;;;;;;;;;;5042406;28;20259;-75
2024/02/27 06:46:55;;;;;;;0.30;0.30;;;;;;;;;;5057085;28;20331;-75
2024/02/27 06:49:21;;;;;;;0.30;0.30;;;;;;;;;;5043734;28;20223;-78
2024/02/27 06:51:49;;;;;;;0.40;0.40;;;;;;;;;;5064453;28;20233;-75
2024/02/27 06:54:17;;;;;;;0.50;0.50;;;;;;;;;;5058500;28;20247;-75
2024/02/27 06:56:43;;;;;;;0.30;0.30;;;;;;;;;;5079389;28;20306;-75
2024/02/27 06:59:10;;;;;;;0.30;0.30;;;;;;;;;;5069481;28;20639;-76
2024/02/27 07:01:36;;;;;;;0.30;0.30;;;;;;;;;;5064448;28;20597;-77
2024/02/27 07:04:03;;;;;;;0.50;0.50;;;;;;;;;;5065929;28;20257;-76
2024/02/27 07:06:29;;;;;;;0.30;0.30;;;;;;;;;;5056354;28;20700;-76
2024/02/27 07:08:58;;;;;;;0.30;0.30;;;;;;;;;;5045534;28;20231;-75
2024/02/27 07:11:26;;;;;;;0.30;0.30;;;;;;;;;;5064044;28;20219;-75
2024/02/27 07:13:53;;;;;;;0.40;0.40;;;;;;;;;;5042420;28;20945;-79
2024/02/27 07:16:19;;;;;;;0.90;0.90;;;;;;;;;;5032718;28;20611;-75
2024/02/27 07:18:46;;;;;;;0.30;0.30;;;;;;;;;;5057683;28;20234;-75
2024/02/27 07:21:13;;;;;;;0.30;0.30;;;;;;;;;;5055053;28;20605;-74
2024/02/27 07:23:41;;;;;;;0.30;0.30;;;;;;;;;;5059765;28;20356;-74
2024/02/27 07:26:08;;;;;;;0.30;0.30;;;;;;;;;;5061612;28;20240;-75
2024/02/27 07:28:34;;;;;;;0.30;0.30;;;;;;;;;;5055201;28;20227;-74
2024/02/27 07:31:01;;;;;;;0.30;0.30;;;;;;;;;;5059550;28;20222;-74
2024/02/27 07:33:27;;;;;;;1.00;0.93;;;;;;;;;;5054254;28;20230;-74
2024/02/27 07:35:54;;;;;;;0.37;0.37;;;;;;;;;;5042603;28;20226;-75
2024/02/27 07:38:20;;;;;;;0.30;0.30;;;;;;;;;;5058819;28;20231;-76
2024/02/27 07:40:46;;;;;;;0.30;0.30;;;;;;;;;;5069262;28;20318;-77
2024/02/27 07:43:13;;;;;;;0.30;0.30;;;;;;;;;;5060323;28;20227;-77
2024/02/27 07:45:39;;;;;;;0.30;0.30;;;;;;;;;;5044439;28;20232;-76
2024/02/27 07:48:06;;;;;;;0.30;0.30;;;;;;;;;;5061176;28;20230;-76
2024/02/27 07:50:34;;;;;;;0.30;0.30;;;;;;;;;;5058127;28;20334;-77
2024/02/27 07:53:00;;;;;;;0.30;0.30;;;;;;;;;;5072629;28;20222;-77
2024/02/27 07:55:27;;;;;;;0.30;0.30;;;;;;;;;;5077516;28;20613;-77
2024/02/27 07:57:53;;;;;;;0.30;0.30;;;;;;;;;;5062332;28;20242;-76
2024/02/27 08:00:20;;;;;;;0.30;0.30;;;;;;;;;;5064037;28;20218;-77
2024/02/27 08:02:47;;;;;;;0.30;0.30;;;;;;;;;;5034862;28;20245;-77
2024/02/27 08:05:14;;;;;;;0.30;0.30;;;;;;;;;;5023698;28;20228;-77
2024/02/27 08:07:41;;;;;;;0.30;0.30;;;;;;;;;;5050461;28;20219;-77
2024/02/27 08:10:08;;;;;;;0.30;0.30;;;;;;;;;;5022456;28;20900;-76
2024/02/27 08:12:34;;;;;;;0.30;0.30;;;;;;;;;;5052543;28;20220;-77
2024/02/27 08:15:01;;;;;;;0.53;0.53;;;;;;;;;;5025746;28;20219;-77
2024/02/27 08:17:27;;;;;;;0.30;0.30;;;;;;;;;;5035578;28;20228;-77
2024/02/27 08:20:15;;;;;;;0.70;0.50;;;;;;;;;;5043635;28;20223;-86
2024/02/27 08:22:43;;;;;;;0.30;0.30;;;;;;;;;;5036025;28;20287;-80
2024/02/27 08:25:09;;;;;;;0.30;0.30;;;;;;;;;;5048482;28;20231;-80
2024/02/27 08:27:35;;;;;;;0.30;0.30;;;;;;;;;;5028145;28;20236;-84
2024/02/27 08:30:04;;;;;;;0.67;0.67;;;;;;;;;;5038206;28;20242;-84
2024/02/27 08:32:31;;;;;;;0.50;0.50;;;;;;;;;;5046213;28;20219;-84
2024/02/27 08:34:57;;;;;;;0.30;0.30;;;;;;;;;;5036735;28;20615;-83
2024/02/27 08:37:25;;;;;;;0.30;0.30;;;;;;;;;;5036960;28;20232;-83
2024/02/27 08:39:52;;;;;;;0.37;0.37;;;;;;;;;;5050335;28;20235;-82
2024/02/27 08:42:19;;;;;;;0.40;0.40;;;;;;;;;;5022358;28;20219;-82
2024/02/27 08:44:45;;;;;;;0.30;0.30;;;;;;;;;;5062520;28;20248;-86
2024/02/27 08:47:12;;;;;;;0.30;0.30;;;;;;;;;;5028430;28;20358;-84
2024/02/27 08:49:41;;;;;;;0.80;0.33;;;;;;;;;;5043013;28;20864;-84
2024/02/27 08:52:08;;;;;;;0.70;0.70;;;;;;;;;;5039960;28;20314;-85
2024/02/27 08:54:34;;;;;;;0.30;0.30;;;;;;;;;;5030638;28;20600;-86
2024/02/27 08:57:01;;;;;;;1.00;0.67;;;;;;;;;;5029252;28;20231;-83
2024/02/27 08:59:28;;;;;;;0.40;0.40;;;;;;;;;;5030344;28;20231;-81
2024/02/27 09:01:54;;;;;;;0.30;0.30;;;;;;;;;;5028584;28;20605;-83
2024/02/27 09:04:20;;;;;;;0.30;0.30;;;;;;;;;;5028520;28;20225;-84
2024/02/27 09:06:47;;;;;;;0.30;0.30;;;;;;;;;;5048482;28;20599;-84
2024/02/27 09:09:14;;;;;;;0.97;0.97;;;;;;;;;;5031485;28;20692;-84
2024/02/27 09:11:42;;;;;;;0.30;0.30;;;;;;;;;;5033617;28;20226;-85
2024/02/27 09:14:09;;;;;;;0.30;0.30;;;;;;;;;;5039571;28;20856;-84
2024/02/27 09:16:35;;;;;;;0.30;0.30;;;;;;;;;;5030543;28;20227;-77
2024/02/27 09:19:01;;;;;;;0.90;0.90;;;;;;;;;;5038253;28;20232;-81
2024/02/27 09:21:28;;;;;;;0.77;0.60;;;;;;;;;;5021293;28;20232;-77
2024/02/27 09:23:55;;;;;;;0.37;0.37;;;;;;;;;;5052055;28;20605;-77
2024/02/27 09:26:21;;;;;;;0.30;0.30;;;;;;;;;;5046244;28;20306;-77
2024/02/27 09:28:51;;;;;;;0.30;0.30;;;;;;;;;;5077372;28;20279;-80
2024/02/27 09:31:17;;;;;;;0.40;0.40;;;;;;;;;;5063115;28;20232;-77
2024/02/27 09:33:56;;;;;;;0.30;0.30;;;;;;;;;;5041889;28;20231;-77
2024/02/27 09:36:23;;;;;;;0.47;0.47;;;;;;;;;;5043227;28;20229;-77
2024/02/27 09:38:49;;;;;;;0.33;0.33;;;;;;;;;;5040096;28;20248;-77
2024/02/27 09:41:34;;;;;;;0.53;0.53;;;;;;;;;;5021295;28;20224;-77
2024/02/27 09:44:01;;;;;;;0.30;0.30;;;;;;;;;;5038385;28;20227;-82
2024/02/27 09:46:28;;;;;;;0.70;0.70;;;;;;;;;;5036113;28;20238;-76
2024/02/27 09:48:55;;;;;;;0.30;0.30;;;;;;;;;;5049438;28;20240;-76
2024/02/27 09:51:25;;;;;;;0.47;0.47;;;;;;;;;;5042957;28;20255;-76
2024/02/27 09:53:56;;;;;;;2.73;0.90;;;;;;;;;;5039874;28;20223;-76
2024/02/27 09:56:24;;;;;;;0.30;0.30;;;;;;;;;;5038665;28;20222;-76
2024/02/27 09:58:51;;;;;;;0.87;0.67;;;;;;;;;;5043045;28;20236;-80
2024/02/27 10:01:21;;;;;;;0.57;0.57;;;;;;;;;;5035044;28;20593;-76
2024/02/27 10:03:50;;;;;;;0.50;0.50;;;;;;;;;;5038552;28;20220;-77
2024/02/27 10:06:17;;;;;;;0.40;0.40;;;;;;;;;;5044493;28;20283;-77
2024/02/27 10:08:56;;;;;;;0.77;0.50;;;;;;;;;;5061579;28;20290;-76
2024/02/27 10:11:22;;;;;;;0.50;0.50;;;;;;;;;;5036819;28;20223;-76
2024/02/27 10:13:49;;;;;;;0.50;0.50;;;;;;;;;;5045825;28;20312;-77
2024/02/27 10:16:21;;;;;;;1.50;1.40;;;;;;;;;;5042608;28;20241;-76
2024/02/27 10:18:49;;;;;;;0.40;0.40;;;;;;;;;;5048234;28;20246;-76
2024/02/27 10:21:20;;;;;;;0.70;0.70;;;;;;;;;;5038722;28;20220;-76
2024/02/27 10:23:46;;;;;;;2.93;1.33;;;;;;;;;;5041666;28;20220;-77
2024/02/27 10:26:14;;;;;;;0.30;0.30;;;;;;;;;;5040368;28;20235;-76
2024/02/27 10:28:41;;;;;;;0.47;0.47;;;;;;;;;;5042242;28;20231;-76
2024/02/27 10:31:08;;;;;;;0.40;0.40;;;;;;;;;;5044913;28;20612;-76
2024/02/27 10:33:38;;;;;;;1.07;0.67;;;;;;;;;;5044025;28;20660;-76
2024/02/27 10:36:06;;;;;;;0.97;0.97;;;;;;;;;;5045157;28;20601;-76
2024/02/27 10:38:32;;;;;;;0.80;0.80;;;;;;;;;;5039439;28;20238;-76
2024/02/27 10:41:00;;;;;;;0.67;0.67;;;;;;;;;;5036788;28;20224;-76
2024/02/27 10:43:26;;;;;;;0.40;0.40;;;;;;;;;;5038852;28;20219;-76
2024/02/27 10:45:54;;;;;;;0.87;0.73;;;;;;;;;;5037955;28;20234;-76
2024/02/27 10:48:20;;;;;;;0.57;0.57;;;;;;;;;;5038455;28;20305;-76
2024/02/27 10:50:59;;;;;;;0.43;0.43;;;;;;;;;;5062368;28;20301;-76
2024/02/27 10:53:26;;;;;;;0.53;0.43;;;;;;;;;;5036816;28;20283;-76
2024/02/27 10:55:53;;;;;;;0.40;0.40;;;;;;;;;;5043347;28;20329;-76
2024/02/27 10:58:21;;;;;;;0.30;0.30;;;;;;;;;;5044510;28;20318;-76
2024/02/27 11:00:47;;;;;;;0.30;0.30;;;;;;;;;;5043921;28;20236;-76
2024/02/27 11:03:15;;;;;;;0.70;0.70;;;;;;;;;;5035730;28;20226;-76
2024/02/27 11:05:45;;;;;;;0.30;0.30;;;;;;;;;;5033924;28;20234;-76
2024/02/27 11:08:14;;;;;;;0.40;0.40;;;;;;;;;;5036929;28;20617;-76
2024/02/27 11:10:41;;;;;;;3.77;3.23;;;;;;;;;;5025414;28;20251;-76
2024/02/27 11:13:12;;;;;;;0.73;0.73;;;;;;;;;;5034009;28;20223;-76
2024/02/27 11:15:41;;;;;;;0.40;0.40;;;;;;;;;;5036720;28;20216;-77
2024/02/27 11:18:11;;;;;;;0.77;0.77;;;;;;;;;;5039136;28;20235;-76
2024/02/27 11:20:39;;;;;;;0.70;0.70;;;;;;;;;;5045335;28;20230;-76
2024/02/27 11:23:07;;;;;;;0.30;0.30;;;;;;;;;;5023885;28;20220;-76
2024/02/27 11:25:33;;;;;;;0.60;0.60;;;;;;;;;;5027855;28;20736;-76
2024/02/27 11:28:02;;;;;;;0.63;0.63;;;;;;;;;;5025533;28;20220;-77
2024/02/27 11:30:29;;;;;;;0.43;0.43;;;;;;;;;;5038910;28;20830;-76
2024/02/27 11:32:57;;;;;;;0.63;0.63;;;;;;;;;;5044116;28;20231;-76
2024/02/27 11:35:26;;;;;;;0.63;0.63;;;;;;;;;;5039199;28;20212;-76
2024/02/27 11:37:54;;;;;;;0.60;0.60;;;;;;;;;;5035552;28;20231;-76
2024/02/27 11:40:46;;;;;;;0.80;0.80;;;;;;;;;;5019691;28;20278;-76
2024/02/27 11:43:14;;;;;;;0.33;0.33;;;;;;;;;;5044602;28;20681;-76
2024/02/27 11:45:41;;;;;;;0.50;0.50;;;;;;;;;;5045310;28;20254;-76
2024/02/27 11:48:08;;;;;;;0.37;0.37;;;;;;;;;;5044355;28;20266;-77
2024/02/27 11:50:35;;;;;;;0.30;0.30;;;;;;;;;;5040940;28;20236;-76
2024/02/27 11:53:17;;;;;;;0.50;0.50;;;;;;;;;;5044550;28;20223;-76
2024/02/27 11:55:45;;;;;;;0.60;0.60;;;;;;;;;;5050214;28;20223;-76
2024/02/27 11:58:12;;;;;;;0.70;0.70;;;;;;;;;;5041459;28;20310;-76
2024/02/27 12:00:39;;;;;;;0.30;0.30;;;;;;;;;;5043018;28;20219;-76
2024/02/27 12:03:06;;;;;;;0.47;0.47;;;;;;;;;;5043298;28;20263;-76
2024/02/27 12:05:33;;;;;;;0.30;0.30;;;;;;;;;;5041891;28;20341;-76
2024/02/27 12:08:00;;;;;;;0.50;0.50;;;;;;;;;;5042832;28;20341;-76
2024/02/27 12:10:30;;;;;;;0.40;0.40;;;;;;;;;;5060148;28;20248;-76
2024/02/27 12:12:57;;;;;;;0.50;0.50;;;;;;;;;;5063315;28;20230;-76
2024/02/27 12:15:24;;;;;;;0.40;0.40;;;;;;;;;;5046891;28;20227;-76
2024/02/27 12:17:50;;;;;;;0.50;0.50;;;;;;;;;;5062697;28;20248;-76
2024/02/27 12:20:17;;;;;;;0.60;0.60;;;;;;;;;;5068297;28;20261;-76
2024/02/27 12:22:45;;;;;;;0.67;0.67;;;;;;;;;;5063716;28;20226;-76
2024/02/27 12:25:12;;;;;;;0.50;0.50;;;;;;;;;;5062759;28;20268;-76
2024/02/27 12:27:39;;;;;;;0.60;0.60;;;;;;;;;;5042190;28;20226;-76
2024/02/27 12:30:10;;;;;;;2.33;0.73;;;;;;;;;;5062667;28;20708;-76
2024/02/27 12:32:43;;;;;;;0.50;0.50;;;;;;;;;;5068214;28;20240;-76
2024/02/27 12:35:12;;;;;;;0.43;0.43;;;;;;;;;;5056761;28;20229;-76
2024/02/27 12:37:46;;;;;;;0.30;0.30;;;;;;;;;;5055386;28;20219;-76
2024/02/27 12:40:14;;;;;;;0.50;0.50;;;;;;;;;;5062500;28;20280;-76
2024/02/27 12:42:43;;;;;;;0.40;0.40;;;;;;;;;;5042724;28;20767;-76
2024/02/27 12:45:11;;;;;;;0.40;0.40;;;;;;;;;;5059284;28;20233;-76
2024/02/27 12:47:40;;;;;;;0.47;0.47;;;;;;;;;;5067391;28;20246;-76
2024/02/27 12:50:08;;;;;;;1.03;1.03;;;;;;;;;;5050018;28;20223;-76
2024/02/27 12:52:35;;;;;;;0.53;0.53;;;;;;;;;;5064901;28;20306;-76
2024/02/27 12:55:03;;;;;;;0.80;0.80;;;;;;;;;;5067799;28;20302;-76
2024/02/27 12:57:30;;;;;;;1.13;1.07;;;;;;;;;;5073390;28;20230;-75
2024/02/27 12:59:56;;;;;;;0.40;0.40;;;;;;;;;;5054393;28;20313;-75
2024/02/27 13:02:27;;;;;;;1.07;0.97;;;;;;;;;;5051808;28;20226;-75
2024/02/27 13:04:56;;;;;;;3.00;1.87;;;;;;;;;;5049255;28;20242;-75
2024/02/27 13:07:26;;;;;;;1.53;1.53;;;;;;;;;;5047805;28;20317;-75
2024/02/27 13:09:53;;;;;;;0.80;0.80;;;;;;;;;;5068239;28;20230;-75
2024/02/27 13:12:20;;;;;;;0.70;0.70;;;;;;;;;;5067498;28;20222;-74
2024/02/27 13:14:46;;;;;;;0.60;0.60;;;;;;;;;;5067053;28;20239;-78
2024/02/27 13:17:13;;;;;;;0.80;0.80;;;;;;;;;;5065175;28;20226;-75
2024/02/27 13:19:39;;;;;;;0.80;0.80;;;;;;;;;;5066014;28;20221;-77
2024/02/27 13:22:06;;;;;;;2.33;2.13;;;;;;;;;;5061176;28;20723;-75
2024/02/27 13:24:33;;;;;;;0.93;0.93;;;;;;;;;;5043192;28;20309;-75
2024/02/27 13:27:00;;;;;;;1.05;1.05;;;;;;;;;;5046836;28;20929;-75
2024/02/27 13:29:27;;;;;;;1.02;1.02;;;;;;;;;;5042475;28;20250;-75
2024/02/27 13:31:53;;;;;;;3.50;2.50;;;;;;;;;;5047438;28;20231;-75
2024/02/27 13:34:21;;;;;;;1.30;1.30;;;;;;;;;;5044665;28;20223;-75
2024/02/27 13:36:49;;;;;;;1.35;1.25;;;;;;;;;;5061746;28;20326;-75
2024/02/27 13:39:20;;;;;;;1.30;1.17;;;;;;;;;;5059133;28;20226;-75
2024/02/27 13:41:47;;;;;;;1.08;1.08;;;;;;;;;;5062133;28;20227;-75
2024/02/27 13:44:16;;;;;;;0.82;0.82;;;;;;;;;;5062072;28;20227;-74
2024/02/27 13:46:42;;;;;;;2.78;1.42;;;;;;;;;;5063261;28;21145;-76
2024/02/27 13:49:10;;;;;;;1.08;1.02;;;;;;;;;;5050994;28;20246;-75
2024/02/27 13:51:40;;;;;;;1.23;1.23;;;;;;;;;;5048824;28;20222;-75
2024/02/27 13:54:06;;;;;;;2.13;1.92;;;;;;;;;;5045869;28;20280;-75
2024/02/27 13:56:33;;;;;;;1.10;0.70;;;;;;;;;;5061526;28;20218;-75
2024/02/27 13:58:59;;;;;;;2.40;1.52;;;;;;;;;;5064667;28;20223;-76
2024/02/27 14:01:26;;;;;;;1.80;1.65;;;;;;;;;;5058078;28;20226;-75
2024/02/27 14:03:53;;;;;;;1.15;1.15;;;;;;;;;;5068021;28;20226;-75
2024/02/27 14:06:20;;;;;;;1.65;1.55;;;;;;;;;;5057267;28;20244;-75
2024/02/27 14:08:47;;;;;;;1.00;1.00;;;;;;;;;;5059003;28;20243;-75
2024/02/27 14:11:14;;;;;;;1.08;1.08;;;;;;;;;;5059879;28;20234;-75
2024/02/27 14:13:41;;;;;;;0.70;0.70;;;;;;;;;;5059001;28;20335;-75
2024/02/27 14:16:08;;;;;;;0.85;0.85;;;;;;;;;;5062567;28;20266;-75
2024/02/27 14:18:34;;;;;;;1.13;0.73;;;;;;;;;;5045402;28;20223;-74
2024/02/27 14:21:02;;;;;;;0.90;0.90;;;;;;;;;;5042654;28;20223;-74
2024/02/27 14:23:28;;;;;;;0.60;0.60;;;;;;;;;;5059945;28;20223;-74
2024/02/27 14:25:55;;;;;;;1.40;1.23;;;;;;;;;;5041258;28;20242;-74
2024/02/27 14:28:21;;;;;;;1.15;1.15;;;;;;;;;;5056809;28;20230;-74
2024/02/27 14:30:48;;;;;;;0.30;0.30;;;;;;;;;;5045320;28;20230;-74
2024/02/27 14:33:14;;;;;;;0.95;0.95;;;;;;;;;;5040747;28;20214;-74
2024/02/27 14:35:41;;;;;;;0.60;0.60;;;;;;;;;;5052236;28;20309;-73
2024/02/27 14:38:08;;;;;;;1.77;1.67;;;;;;;;;;5046334;28;20223;-74
2024/02/27 14:40:34;;;;;;;0.40;0.40;;;;;;;;;;5060039;28;20219;-74
2024/02/27 14:43:02;;;;;;;0.93;0.93;;;;;;;;;;5059368;28;20227;-74